createdAt,value
2023-03-20T00:02:24.181Z,14.60
2023-03-20T00:04:51.578Z,14.52
2023-03-20T00:07:18.968Z,14.35
2023-03-20T00:09:46.339Z,14.04
2023-03-20T00:12:26.207Z,13.73
2023-03-20T00:14:54.038Z,13.95
2023-03-20T00:17:21.859Z,14.08
2023-03-20T00:19:49.481Z,14.06
2023-03-20T00:22:16.677Z,14.17
2023-03-20T00:24:43.972Z,14.18
2023-03-20T00:27:16.433Z,14.26
2023-03-20T00:29:44.277Z,14.17
2023-03-20T00:32:15.995Z,14.08
2023-03-20T00:34:43.335Z,14.46
2023-03-20T00:37:11.808Z,14.52
2023-03-20T00:39:40.444Z,14.50
2023-03-20T00:42:21.225Z,14.29
2023-03-20T00:44:54.729Z,14.05
2023-03-20T00:47:25.804Z,13.98
2023-03-20T00:49:55.976Z,13.83
2023-03-20T00:52:24.462Z,13.93
2023-03-20T00:54:52.244Z,14.02
2023-03-20T00:57:46.324Z,14.28
2023-03-20T01:00:36.793Z,14.36
2023-03-20T01:03:23.107Z,14.24
2023-03-20T01:05:51.857Z,14.23
2023-03-20T01:08:25.112Z,13.99
2023-03-20T01:10:58.604Z,13.88
2023-03-20T01:13:30.686Z,13.78
2023-03-20T01:15:59.271Z,13.72
2023-03-20T01:18:27.759Z,13.86
2023-03-20T01:20:55.312Z,13.61
2023-03-20T01:23:23.125Z,13.58
2023-03-20T01:25:51.436Z,13.89
2023-03-20T01:28:24.521Z,14.11
2023-03-20T01:30:52.599Z,14.40
2023-03-20T01:33:26.584Z,14.20
2023-03-20T01:35:57.484Z,14.14
2023-03-20T01:38:27.952Z,14.15
2023-03-20T01:41:16.675Z,14.32
2023-03-20T01:43:46.470Z,14.41
2023-03-20T01:46:32.079Z,14.20
2023-03-20T01:49:20.536Z,14.26
2023-03-20T01:51:52.096Z,14.13
2023-03-20T01:54:29.989Z,13.96
2023-03-20T01:57:13.749Z,13.90
2023-03-20T01:59:48.034Z,13.91
2023-03-20T02:02:24.020Z,13.23
2023-03-20T02:05:02.894Z,13.35
2023-03-20T02:07:33.470Z,12.92
2023-03-20T02:10:16.381Z,12.75
2023-03-20T02:13:16.091Z,13.24
2023-03-20T02:16:11.220Z,13.64
2023-03-20T02:18:58.856Z,13.80
2023-03-20T02:22:40.627Z,13.55
2023-03-20T02:25:56.947Z,13.52
2023-03-20T02:29:01.521Z,13.74
2023-03-20T02:32:13.816Z,13.89
2023-03-20T02:34:46.876Z,13.73
2023-03-20T02:37:48.073Z,13.85
2023-03-20T02:40:46.781Z,14.23
2023-03-20T02:43:35.080Z,14.17
2023-03-20T02:46:33.245Z,14.23
2023-03-20T02:49:40.739Z,14.09
2023-03-20T02:52:36.461Z,14.16
2023-03-20T02:55:35.020Z,14.02
2023-03-20T02:58:39.031Z,13.83
2023-03-20T03:01:28.215Z,13.90
2023-03-20T03:04:07.014Z,13.79
2023-03-20T03:06:39.912Z,13.53
2023-03-20T03:09:35.946Z,13.57
2023-03-20T03:12:18.548Z,13.76
2023-03-20T03:15:00.392Z,13.87
2023-03-20T03:17:34.632Z,13.93
2023-03-20T03:20:32.622Z,13.95
2023-03-20T03:23:01.963Z,14.10
2023-03-20T03:25:36.837Z,14.26
2023-03-20T03:28:43.509Z,14.06
2023-03-20T03:31:16.351Z,14.18
2023-03-20T03:33:51.109Z,13.93
2023-03-20T03:36:52.675Z,13.97
2023-03-20T03:40:02.054Z,13.97
2023-03-20T03:42:52.914Z,13.98
2023-03-20T03:45:36.340Z,14.05
2023-03-20T03:48:18.965Z,14.10
2023-03-20T03:51:14.943Z,14.03
2023-03-20T03:54:12.113Z,14.39
2023-03-20T03:56:44.711Z,14.42
2023-03-20T03:59:25.042Z,14.51
2023-03-20T04:01:54.622Z,14.44
2023-03-20T04:04:26.237Z,14.38
2023-03-20T04:06:53.542Z,14.33
2023-03-20T04:09:20.760Z,14.24
2023-03-20T04:11:52.641Z,14.31
2023-03-20T04:14:20.310Z,14.01
2023-03-20T04:16:47.787Z,14.11
2023-03-20T04:19:15.318Z,13.94
2023-03-20T04:21:45.814Z,14.07
2023-03-20T04:24:13.086Z,14.13
2023-03-20T04:26:40.501Z,14.24
2023-03-20T04:29:07.927Z,14.19
2023-03-20T04:31:57.250Z,14.16
2023-03-20T04:34:42.646Z,14.24
2023-03-20T04:37:28.303Z,14.24
2023-03-20T04:40:05.960Z,14.02
2023-03-20T04:42:33.112Z,13.85
2023-03-20T04:45:05.238Z,13.75
2023-03-20T04:47:32.790Z,13.75
2023-03-20T04:50:01.171Z,13.81
2023-03-20T04:52:30.349Z,13.56
2023-03-20T04:54:57.798Z,13.62
2023-03-20T04:57:25.243Z,13.70
2023-03-20T04:59:53.564Z,13.76
2023-03-20T05:02:21.176Z,13.84
2023-03-20T05:04:48.396Z,13.87
2023-03-20T05:07:16.181Z,13.90
2023-03-20T05:10:07.149Z,14.01
2023-03-20T05:12:43.860Z,14.02
2023-03-20T05:15:26.457Z,14.05
2023-03-20T05:18:13.553Z,13.93
2023-03-20T05:20:59.472Z,14.02
2023-03-20T05:23:46.549Z,13.84
2023-03-20T05:26:37.244Z,13.67
2023-03-20T05:29:22.737Z,13.64
2023-03-20T05:32:18.489Z,13.79
2023-03-20T05:35:15.038Z,13.90
2023-03-20T05:38:02.500Z,14.09
2023-03-20T05:40:43.826Z,14.12
2023-03-20T05:43:18.869Z,13.97
2023-03-20T05:46:09.161Z,13.91
2023-03-20T05:48:47.559Z,13.93
2023-03-20T05:51:14.994Z,13.90
2023-03-20T05:54:01.347Z,14.01
2023-03-20T05:56:34.577Z,14.05
2023-03-20T05:59:13.531Z,14.08
2023-03-20T06:02:07.222Z,14.38
2023-03-20T06:04:37.451Z,14.37
2023-03-20T06:07:33.893Z,14.20
2023-03-20T06:10:07.212Z,14.34
2023-03-20T06:12:34.497Z,14.45
2023-03-20T06:15:02.387Z,14.62
2023-03-20T06:17:32.876Z,14.55
2023-03-20T06:20:04.197Z,14.51
2023-03-20T06:22:32.321Z,14.24
2023-03-20T06:24:59.528Z,14.42
2023-03-20T06:27:35.170Z,14.69
2023-03-20T06:30:02.564Z,14.74
2023-03-20T06:32:33.774Z,14.80
2023-03-20T06:35:05.774Z,14.82
2023-03-20T06:37:34.550Z,14.89
2023-03-20T06:40:10.220Z,15.02
2023-03-20T06:42:37.695Z,15.06
2023-03-20T06:45:08.157Z,15.12
2023-03-20T06:48:09.271Z,15.55
2023-03-20T06:50:37.188Z,15.28
2023-03-20T06:53:06.652Z,15.46
2023-03-20T06:55:50.113Z,15.58
2023-03-20T06:58:18.095Z,15.43
2023-03-20T07:00:49.380Z,15.77
2023-03-20T07:03:16.726Z,15.67
2023-03-20T07:05:46.842Z,15.92
2023-03-20T07:08:15.096Z,16.06
2023-03-20T07:10:42.967Z,16.03
2023-03-20T07:13:10.426Z,16.22
2023-03-20T07:15:39.279Z,16.30
2023-03-20T07:18:08.824Z,16.08
2023-03-20T07:20:36.397Z,16.32
2023-03-20T07:23:04.002Z,16.41
2023-03-20T07:25:42.297Z,17.35
2023-03-20T07:28:13.010Z,17.34
2023-03-20T07:30:44.727Z,16.83
2023-03-20T07:33:16.478Z,16.71
2023-03-20T07:35:45.087Z,16.85
2023-03-20T07:38:12.714Z,17.48
2023-03-20T07:40:50.450Z,17.60
2023-03-20T07:43:17.674Z,16.57
2023-03-20T07:46:09.845Z,16.74
2023-03-20T07:48:38.966Z,16.74
2023-03-20T07:51:07.065Z,17.51
2023-03-20T07:53:34.350Z,17.91
2023-03-20T07:56:01.709Z,18.41
2023-03-20T07:58:31.872Z,19.06
2023-03-20T08:01:03.576Z,20.01
2023-03-20T08:03:31.683Z,20.82
2023-03-20T08:05:59.026Z,20.36
2023-03-20T08:08:26.352Z,19.85
2023-03-20T08:10:53.543Z,20.24
2023-03-20T08:13:20.673Z,20.18
2023-03-20T08:15:48.040Z,20.72
2023-03-20T08:18:15.574Z,20.78
2023-03-20T08:20:42.780Z,22.39
2023-03-20T08:23:09.966Z,22.85
2023-03-20T08:25:38.079Z,22.45
2023-03-20T08:28:05.627Z,22.87
2023-03-20T08:30:32.884Z,21.64
2023-03-20T08:33:01.675Z,22.39
2023-03-20T08:35:33.596Z,22.04
2023-03-20T08:38:15.716Z,22.18
2023-03-20T08:40:43.149Z,22.24
2023-03-20T08:43:10.689Z,21.47
2023-03-20T08:45:38.265Z,21.12
2023-03-20T08:48:05.804Z,20.00
2023-03-20T08:50:33.191Z,19.97
2023-03-20T08:53:01.233Z,20.81
2023-03-20T08:55:28.699Z,20.98
2023-03-20T08:57:57.431Z,21.15
2023-03-20T09:00:25.843Z,21.07
2023-03-20T09:02:53.595Z,21.36
2023-03-20T09:05:20.896Z,22.02
2023-03-20T09:07:48.230Z,22.47
2023-03-20T09:10:15.559Z,21.98
2023-03-20T09:12:42.826Z,22.57
2023-03-20T09:15:11.879Z,22.50
2023-03-20T09:17:39.152Z,22.73
2023-03-20T09:20:08.242Z,22.47
2023-03-20T09:22:35.560Z,22.30
2023-03-20T09:25:04.617Z,22.08
2023-03-20T09:27:31.857Z,22.61
2023-03-20T09:29:59.086Z,22.58
2023-03-20T09:32:26.335Z,22.72
2023-03-20T09:34:53.658Z,22.84
2023-03-20T09:37:21.589Z,22.64
2023-03-20T09:39:48.747Z,22.25
2023-03-20T09:42:54.164Z,22.65
2023-03-20T09:46:04.954Z,23.14
2023-03-20T09:49:10.246Z,23.18
2023-03-20T09:52:34.406Z,23.42
2023-03-20T09:55:14.863Z,23.93
2023-03-20T09:57:50.141Z,23.88
2023-03-20T10:00:31.591Z,24.09
2023-03-20T10:03:18.134Z,23.60
2023-03-20T10:06:04.114Z,22.66
2023-03-20T10:08:38.126Z,23.42
2023-03-20T10:11:59.062Z,24.01
2023-03-20T10:14:50.455Z,24.38
2023-03-20T10:17:45.520Z,23.68
2023-03-20T10:20:36.958Z,23.76
2023-03-20T10:23:09.448Z,23.40
2023-03-20T10:26:13.937Z,23.34
2023-03-20T10:28:52.397Z,23.19
2023-03-20T10:32:08.085Z,22.75
2023-03-20T10:35:10.727Z,22.73
2023-03-20T10:38:37.702Z,22.28
2023-03-20T10:41:17.054Z,22.00
2023-03-20T10:43:49.770Z,21.34
2023-03-20T10:46:30.419Z,21.29
2023-03-20T10:49:02.058Z,21.25
2023-03-20T10:51:58.331Z,20.97
2023-03-20T10:54:34.166Z,21.08
2023-03-20T10:57:06.395Z,21.17
2023-03-20T10:59:49.423Z,21.24
2023-03-20T11:02:21.857Z,21.46
2023-03-20T11:04:50.870Z,21.72
2023-03-20T11:07:47.518Z,21.88
2023-03-20T11:10:17.078Z,21.78
2023-03-20T11:12:50.559Z,21.54
2023-03-20T11:15:26.827Z,21.12
2023-03-20T11:18:06.425Z,20.84
2023-03-20T11:20:53.176Z,20.39
2023-03-20T11:23:33.167Z,20.42
2023-03-20T11:26:08.376Z,20.40
2023-03-20T11:28:42.392Z,19.78
2023-03-20T11:31:43.249Z,20.13
2023-03-20T11:34:16.856Z,20.36
2023-03-20T11:37:13.527Z,20.31
2023-03-20T11:39:59.323Z,20.33
2023-03-20T11:42:31.040Z,19.83
2023-03-20T11:45:07.174Z,19.71
2023-03-20T11:47:36.533Z,19.33
2023-03-20T11:50:26.190Z,19.66
2023-03-20T11:52:54.739Z,20.16
2023-03-20T11:55:33.626Z,20.20
2023-03-20T11:58:06.469Z,20.68
2023-03-20T12:00:42.917Z,20.77
2023-03-20T12:03:57.856Z,19.84
2023-03-20T12:06:51.390Z,19.83
2023-03-20T12:09:31.898Z,20.01
2023-03-20T12:12:42.482Z,19.79
2023-03-20T12:15:12.946Z,19.87
2023-03-20T12:18:03.577Z,20.38
2023-03-20T12:20:43.574Z,20.80
2023-03-20T12:23:14.130Z,20.87
2023-03-20T12:25:55.347Z,20.26
2023-03-20T12:28:56.696Z,20.88
2023-03-20T12:31:39.644Z,21.04
2023-03-20T12:34:20.268Z,21.36
2023-03-20T12:36:53.072Z,22.04
2023-03-20T12:39:24.459Z,23.68
2023-03-20T12:42:07.314Z,24.98
2023-03-20T12:45:02.182Z,27.08
2023-03-20T12:48:18.237Z,27.03
2023-03-20T12:51:38.653Z,26.82
2023-03-20T12:54:39.020Z,29.53
2023-03-20T12:58:11.836Z,28.26
2023-03-20T13:01:04.933Z,28.15
2023-03-20T13:04:07.632Z,26.85
2023-03-20T13:07:01.505Z,26.93
2023-03-20T13:10:21.556Z,26.98
2023-03-20T13:13:33.973Z,27.24
2023-03-20T13:16:17.910Z,27.60
2023-03-20T13:19:26.064Z,28.85
2023-03-20T13:22:10.890Z,29.24
2023-03-20T13:25:21.482Z,29.90
2023-03-20T13:28:14.387Z,28.93
2023-03-20T13:30:56.245Z,27.72
2023-03-20T13:33:37.556Z,26.84
2023-03-20T13:37:22.000Z,26.19
2023-03-20T13:40:25.624Z,26.74
2023-03-20T13:43:24.598Z,26.95
2023-03-20T13:46:28.176Z,26.29
2023-03-20T13:49:16.934Z,26.33
2023-03-20T13:52:17.089Z,26.23
2023-03-20T13:55:14.975Z,26.15
2023-03-20T13:58:21.803Z,25.63
2023-03-20T14:01:22.438Z,25.33
2023-03-20T14:03:52.133Z,25.40
2023-03-20T14:06:39.857Z,25.12
2023-03-20T14:09:42.658Z,24.42
2023-03-20T14:12:13.556Z,23.92
2023-03-20T14:15:01.521Z,23.44
2023-03-20T14:20:29.731Z,22.79
2023-03-20T14:22:58.212Z,23.14
2023-03-20T14:25:29.702Z,23.36
2023-03-20T14:28:06.549Z,22.81
2023-03-20T14:31:11.979Z,22.50
2023-03-20T14:33:44.928Z,21.81
2023-03-20T14:36:27.591Z,21.66
2023-03-20T14:39:15.707Z,20.98
2023-03-20T14:42:25.202Z,21.78
2023-03-20T14:45:43.705Z,22.05
2023-03-20T14:48:28.938Z,21.98
2023-03-20T14:51:18.892Z,21.95
2023-03-20T14:54:18.468Z,21.63
2023-03-20T14:56:46.005Z,21.70
2023-03-20T14:59:17.098Z,21.66
2023-03-20T15:02:00.994Z,21.46
2023-03-20T15:04:41.229Z,21.59
2023-03-20T15:07:26.005Z,21.31
2023-03-20T15:10:03.056Z,21.53
2023-03-20T15:12:37.389Z,21.16
2023-03-20T15:15:28.340Z,21.24
2023-03-20T15:17:55.673Z,21.01
2023-03-20T15:20:29.474Z,21.21
2023-03-20T15:23:02.573Z,21.05
2023-03-20T15:25:40.956Z,21.04
2023-03-20T15:28:16.726Z,21.21
2023-03-20T15:30:49.884Z,21.15
2023-03-20T15:33:42.918Z,20.34
2023-03-20T15:36:22.807Z,20.26
2023-03-20T15:38:50.780Z,20.38
2023-03-20T15:41:35.903Z,20.81
2023-03-20T15:44:15.933Z,20.88
2023-03-20T15:47:00.124Z,20.64
2023-03-20T15:49:31.496Z,20.83
2023-03-20T15:52:06.630Z,20.36
2023-03-20T15:54:37.535Z,20.28
2023-03-20T15:57:05.437Z,20.37
2023-03-20T15:59:34.691Z,20.18
2023-03-20T16:02:03.693Z,20.14
2023-03-20T16:04:31.264Z,20.12
2023-03-20T16:07:00.678Z,20.02
2023-03-20T16:09:29.464Z,19.99
2023-03-20T16:12:02.654Z,19.89
2023-03-20T16:14:34.988Z,19.74
2023-03-20T16:17:05.301Z,19.73
2023-03-20T16:19:33.323Z,19.83
2023-03-20T16:22:28.110Z,19.87
2023-03-20T16:25:00.781Z,19.84
2023-03-20T16:27:36.540Z,19.82
2023-03-20T16:30:18.171Z,19.83
2023-03-20T16:32:55.452Z,19.74
2023-03-20T16:35:38.459Z,19.81
2023-03-20T16:38:26.270Z,19.65
2023-03-20T16:41:17.161Z,19.65
2023-03-20T16:43:50.960Z,19.21
2023-03-20T16:46:24.174Z,19.14
2023-03-20T16:49:34.370Z,18.98
2023-03-20T16:52:10.507Z,19.06
2023-03-20T16:54:39.178Z,19.02
2023-03-20T16:57:17.967Z,19.15
2023-03-20T16:59:46.199Z,18.77
2023-03-20T17:02:35.696Z,18.39
2023-03-20T17:05:12.998Z,18.33
2023-03-20T17:07:42.976Z,18.37
2023-03-20T17:10:16.562Z,18.26
2023-03-20T17:12:48.926Z,18.02
2023-03-20T17:15:24.235Z,17.79
2023-03-20T17:17:51.988Z,17.81
2023-03-20T17:20:25.500Z,17.43
2023-03-20T17:22:54.364Z,17.45
2023-03-20T17:25:22.013Z,17.09
2023-03-20T17:27:49.250Z,17.15
2023-03-20T17:30:25.403Z,17.13
2023-03-20T17:32:53.270Z,17.22
2023-03-20T17:35:21.121Z,17.26
2023-03-20T17:37:48.994Z,17.14
2023-03-20T17:40:25.253Z,17.10
2023-03-20T17:42:52.424Z,17.01
2023-03-20T17:45:21.454Z,17.15
2023-03-20T17:47:49.059Z,17.07
2023-03-20T17:50:27.559Z,16.97
2023-03-20T17:52:55.373Z,16.79
2023-03-20T17:55:23.060Z,16.76
2023-03-20T17:57:50.420Z,16.85
2023-03-20T18:00:23.371Z,16.69
2023-03-20T18:02:51.335Z,16.57
2023-03-20T18:05:19.263Z,16.62
2023-03-20T18:07:46.813Z,16.61
2023-03-20T18:10:27.119Z,16.63
2023-03-20T18:12:54.335Z,16.60
2023-03-20T18:15:21.542Z,16.41
2023-03-20T18:17:49.195Z,16.39
2023-03-20T18:20:34.768Z,16.36
2023-03-20T18:23:02.331Z,16.25
2023-03-20T18:25:30.401Z,16.30
2023-03-20T18:28:01.726Z,16.31
2023-03-20T18:30:41.425Z,16.21
2023-03-20T18:33:08.752Z,16.31
2023-03-20T18:35:36.691Z,16.36
2023-03-20T18:38:04.682Z,16.37
2023-03-20T18:40:36.764Z,16.31
2023-03-20T18:43:05.260Z,16.39
2023-03-20T18:45:33.128Z,16.38
2023-03-20T18:48:03.740Z,16.40
2023-03-20T18:50:38.496Z,16.47
2023-03-20T18:53:09.080Z,16.37
2023-03-20T18:55:38.296Z,16.22
2023-03-20T18:58:06.280Z,16.17
2023-03-20T19:00:40.622Z,16.26
2023-03-20T19:03:10.223Z,16.33
2023-03-20T19:05:37.734Z,16.33
2023-03-20T19:08:05.853Z,16.43
2023-03-20T19:10:39.507Z,16.44
2023-03-20T19:13:08.072Z,16.39
2023-03-20T19:15:37.413Z,16.32
2023-03-20T19:18:26.642Z,16.21
2023-03-20T19:20:58.258Z,16.12
2023-03-20T19:23:28.727Z,16.12
2023-03-20T19:25:56.588Z,15.85
2023-03-20T19:28:41.112Z,15.86
2023-03-20T19:31:10.035Z,15.82
2023-03-20T19:33:39.027Z,15.91
2023-03-20T19:36:20.656Z,15.99
2023-03-20T19:38:47.867Z,16.02
2023-03-20T19:41:15.419Z,15.98
2023-03-20T19:43:52.534Z,15.92
2023-03-20T19:46:38.784Z,15.67
2023-03-20T19:49:20.788Z,15.40
2023-03-20T19:51:49.649Z,15.42
2023-03-20T19:54:19.208Z,15.17
2023-03-20T19:56:46.587Z,15.26
2023-03-20T19:59:16.381Z,15.22
2023-03-20T20:01:45.571Z,15.35
2023-03-20T20:04:16.251Z,15.38
2023-03-20T20:06:47.245Z,15.33
2023-03-20T20:09:16.591Z,15.47
2023-03-20T20:11:44.106Z,15.28
2023-03-20T20:14:14.826Z,15.18
2023-03-20T20:16:43.545Z,15.09
2023-03-20T20:19:11.931Z,15.21
2023-03-20T20:22:17.270Z,15.24
2023-03-20T20:24:27.715Z,15.33
2023-03-20T20:27:14.690Z,15.57
2023-03-20T20:29:49.874Z,15.24
2023-03-20T20:32:21.661Z,14.70
2023-03-20T20:40:31.328Z,14.67
2023-03-20T20:43:01.804Z,15.07
2023-03-20T20:45:31.655Z,15.52
2023-03-20T20:48:00.764Z,15.09
2023-03-20T20:50:32.972Z,14.77
2023-03-20T20:53:00.345Z,14.37
2023-03-20T20:55:27.791Z,14.45
2023-03-20T20:57:55.930Z,14.51
2023-03-20T21:00:37.186Z,14.77
2023-03-20T21:03:08.743Z,14.75
2023-03-20T21:05:37.757Z,14.47
2023-03-20T21:08:06.992Z,14.45
2023-03-20T21:10:34.349Z,14.56
2023-03-20T21:13:01.585Z,14.62
2023-03-20T21:15:28.965Z,14.57
2023-03-20T21:18:01.350Z,14.15
2023-03-20T21:20:33.068Z,13.79
2023-03-20T21:23:00.972Z,13.45
2023-03-20T21:25:39.749Z,13.50
2023-03-20T21:28:10.445Z,13.62
2023-03-20T21:30:46.749Z,13.63
2023-03-20T21:33:31.109Z,13.83
2023-03-20T21:35:58.825Z,14.03
2023-03-20T21:41:15.214Z,14.20
2023-03-20T21:43:46.436Z,14.19
2023-03-20T21:46:48.698Z,13.99
2023-03-20T22:01:07.959Z,14.14
2023-03-20T22:03:10.248Z,14.48
2023-03-20T22:06:19.514Z,14.00
2023-03-20T22:15:03.957Z,13.65
2023-03-20T22:20:29.111Z,13.39
2023-03-20T22:28:49.898Z,12.81
2023-03-20T22:31:34.696Z,12.67
2023-03-20T22:34:26.784Z,12.87
2023-03-20T22:37:24.607Z,12.89
2023-03-20T22:45:03.162Z,13.15
2023-03-20T22:47:31.566Z,13.32
2023-03-20T22:49:59.100Z,13.39
2023-03-20T22:52:41.694Z,13.58
2023-03-20T22:55:14.105Z,13.79
2023-03-20T22:57:50.056Z,13.76
2023-03-20T23:00:23.434Z,13.82
2023-03-20T23:02:52.899Z,13.92
2023-03-20T23:05:20.225Z,13.86
2023-03-20T23:07:47.341Z,13.86
2023-03-20T23:10:14.902Z,13.92
2023-03-20T23:12:44.028Z,13.93
2023-03-20T23:15:11.855Z,13.93
2023-03-20T23:17:39.157Z,13.70
2023-03-20T23:20:12.309Z,13.43
2023-03-20T23:22:40.755Z,13.44
2023-03-20T23:25:23.825Z,13.59
2023-03-20T23:27:59.231Z,13.98
2023-03-20T23:30:33.948Z,14.01
2023-03-20T23:33:06.295Z,13.86
2023-03-20T23:35:33.890Z,13.86
2023-03-20T23:38:01.492Z,14.07
2023-03-20T23:40:28.646Z,13.88
2023-03-20T23:42:55.883Z,13.72
2023-03-20T23:45:23.216Z,13.69
2023-03-20T23:47:50.730Z,13.47
2023-03-20T23:50:36.887Z,13.60
2023-03-20T23:53:19.388Z,13.58
2023-03-20T23:55:51.670Z,13.55
2023-03-20T23:58:20.353Z,13.62
